createdAt,value
2017-12-20T00:01:08.231Z,30.15
2017-12-20T00:03:35.732Z,30.90
2017-12-20T00:06:03.171Z,27.40
2017-12-20T00:08:30.652Z,30.17
2017-12-20T00:10:58.076Z,33.63
2017-12-20T00:13:26.305Z,23.52
2017-12-20T00:15:53.768Z,25.67
2017-12-20T00:18:21.240Z,28.25
2017-12-20T00:20:48.668Z,30.98
2017-12-20T00:23:16.181Z,28.87
2017-12-20T00:25:43.611Z,27.25
2017-12-20T00:28:11.119Z,26.12
2017-12-20T00:30:38.584Z,25.70
2017-12-20T00:33:06.056Z,29.12
2017-12-20T00:35:34.220Z,28.40
2017-12-20T00:38:02.412Z,29.00
2017-12-20T00:40:29.906Z,25.80
2017-12-20T00:42:58.296Z,25.95
2017-12-20T00:45:25.733Z,23.92
2017-12-20T00:47:53.952Z,27.17
2017-12-20T00:50:21.377Z,24.63
2017-12-20T00:52:48.800Z,28.55
2017-12-20T00:55:16.223Z,23.77
2017-12-20T00:57:44.420Z,26.65
2017-12-20T01:00:12.603Z,24.30
2017-12-20T01:02:40.829Z,23.62
2017-12-20T01:05:08.328Z,24.10
2017-12-20T01:07:35.753Z,27.17
2017-12-20T01:10:03.176Z,30.37
2017-12-20T01:12:30.596Z,25.80
2017-12-20T01:14:58.061Z,24.67
2017-12-20T01:17:26.247Z,20.55
2017-12-20T01:19:53.720Z,22.23
2017-12-20T01:22:21.188Z,23.38
2017-12-20T01:24:48.616Z,23.10
2017-12-20T01:27:16.040Z,23.08
2017-12-20T01:29:43.500Z,22.20
2017-12-20T01:32:10.922Z,19.87
2017-12-20T01:34:38.536Z,22.48
2017-12-20T01:37:06.730Z,21.73
2017-12-20T01:39:34.144Z,24.77
2017-12-20T01:42:01.668Z,21.67
2017-12-20T01:44:29.092Z,21.05
2017-12-20T01:46:56.533Z,27.77
2017-12-20T01:49:23.972Z,24.08
2017-12-20T01:51:51.517Z,23.20
2017-12-20T01:54:18.920Z,27.77
2017-12-20T01:56:46.352Z,23.50
2017-12-20T01:59:14.548Z,24.55
2017-12-20T02:01:42.749Z,28.15
2017-12-20T02:04:10.220Z,29.52
2017-12-20T02:06:38.412Z,25.40
2017-12-20T02:09:05.878Z,29.70
2017-12-20T02:11:34.118Z,28.87
2017-12-20T02:14:01.640Z,24.87
2017-12-20T02:16:29.072Z,30.98
2017-12-20T02:18:56.588Z,27.75
2017-12-20T02:21:24.044Z,28.65
2017-12-20T02:23:51.476Z,25.70
2017-12-20T02:26:19.088Z,27.02
2017-12-20T02:28:46.580Z,26.17
2017-12-20T02:31:14.003Z,31.98
2017-12-20T02:33:43.241Z,29.12
2017-12-20T02:36:10.707Z,30.17
2017-12-20T02:38:38.879Z,28.55
2017-12-20T02:41:07.184Z,30.48
2017-12-20T02:43:37.324Z,33.88
2017-12-20T02:46:04.749Z,28.85
2017-12-20T02:48:32.252Z,33.45
2017-12-20T02:50:59.720Z,29.87
2017-12-20T02:53:27.884Z,34.47
2017-12-20T02:55:56.080Z,26.10
2017-12-20T02:58:24.295Z,25.98
2017-12-20T03:00:51.712Z,29.17
2017-12-20T03:03:20.080Z,26.35
2017-12-20T03:05:47.635Z,28.58
2017-12-20T03:08:15.087Z,27.70
2017-12-20T03:10:42.520Z,31.17
2017-12-20T03:13:10.708Z,30.08
2017-12-20T03:15:39.960Z,29.77
2017-12-20T03:18:07.452Z,29.33
2017-12-20T03:20:34.880Z,24.80
2017-12-20T03:23:03.063Z,26.85
2017-12-20T03:25:31.286Z,24.10
2017-12-20T03:27:58.699Z,28.02
2017-12-20T03:30:26.141Z,23.27
2017-12-20T03:32:53.567Z,27.62
2017-12-20T03:35:21.076Z,27.50
2017-12-20T03:37:48.478Z,28.10
2017-12-20T03:40:15.896Z,26.40
2017-12-20T03:42:43.458Z,25.65
2017-12-20T03:45:11.649Z,25.08
2017-12-20T03:47:39.102Z,23.48
2017-12-20T03:50:07.285Z,23.48
2017-12-20T03:52:35.484Z,30.42
2017-12-20T03:55:02.948Z,26.15
2017-12-20T03:57:30.427Z,25.90
2017-12-20T03:59:57.900Z,30.40
2017-12-20T04:02:25.370Z,25.60
2017-12-20T04:04:52.844Z,31.17
2017-12-20T04:07:20.306Z,28.87
2017-12-20T04:09:47.776Z,26.08
2017-12-20T04:12:15.283Z,25.12
2017-12-20T04:14:42.816Z,31.45
2017-12-20T04:17:10.239Z,25.25
2017-12-20T04:19:37.684Z,23.58
2017-12-20T04:22:05.113Z,22.45
2017-12-20T04:24:32.567Z,25.30
2017-12-20T04:27:00.071Z,23.67
2017-12-20T04:29:27.568Z,24.25
2017-12-20T04:31:55.020Z,24.45
2017-12-20T04:34:22.447Z,28.27
2017-12-20T04:36:50.636Z,24.63
2017-12-20T04:39:18.839Z,27.20
2017-12-20T04:41:46.375Z,24.83
2017-12-20T04:44:13.788Z,27.70
2017-12-20T04:46:41.258Z,24.00
2017-12-20T04:49:08.734Z,28.75
2017-12-20T04:51:36.155Z,27.00
2017-12-20T04:54:03.667Z,24.65
2017-12-20T04:56:31.132Z,23.92
2017-12-20T04:58:58.590Z,24.63
2017-12-20T05:01:26.801Z,25.33
2017-12-20T05:03:54.215Z,24.25
2017-12-20T05:06:21.643Z,31.33
2017-12-20T05:08:49.096Z,23.10
2017-12-20T05:11:16.572Z,30.20
2017-12-20T05:13:43.992Z,26.77
2017-12-20T05:16:12.944Z,25.73
2017-12-20T05:18:40.380Z,26.50
2017-12-20T05:21:08.704Z,26.12
2017-12-20T05:23:43.879Z,25.83
2017-12-20T05:26:11.305Z,26.33
2017-12-20T05:28:39.506Z,28.23
2017-12-20T05:31:06.928Z,27.85
2017-12-20T05:33:34.448Z,29.27
2017-12-20T05:36:02.612Z,29.17
2017-12-20T05:38:30.843Z,27.02
2017-12-20T05:40:58.260Z,28.15
2017-12-20T05:43:26.502Z,30.23
2017-12-20T05:45:53.919Z,30.65
2017-12-20T05:48:22.120Z,28.62
2017-12-20T05:50:49.649Z,27.55
2017-12-20T05:53:17.125Z,26.27
2017-12-20T05:55:46.056Z,26.95
2017-12-20T05:58:14.299Z,32.70
2017-12-20T06:00:41.832Z,27.60
2017-12-20T06:03:10.245Z,29.30
2017-12-20T06:05:37.702Z,27.13
2017-12-20T06:08:05.173Z,29.65
2017-12-20T06:10:32.616Z,28.42
2017-12-20T06:13:01.851Z,26.52
2017-12-20T06:15:30.019Z,29.15
2017-12-20T06:17:58.205Z,24.95
2017-12-20T06:20:26.406Z,26.25
2017-12-20T06:22:54.740Z,27.20
2017-12-20T06:25:22.167Z,27.85
2017-12-20T06:27:49.592Z,24.83
2017-12-20T06:30:17.020Z,26.45
2017-12-20T06:32:44.480Z,24.12
2017-12-20T06:35:11.923Z,23.23
2017-12-20T06:37:40.115Z,24.80
2017-12-20T06:40:07.560Z,23.48
2017-12-20T06:42:34.992Z,21.80
2017-12-20T06:45:02.444Z,23.70
2017-12-20T06:47:29.867Z,26.40
2017-12-20T06:49:57.287Z,19.65
2017-12-20T06:52:24.755Z,22.60
2017-12-20T06:54:52.223Z,19.73
2017-12-20T06:57:19.679Z,21.48
2017-12-20T06:59:47.152Z,23.38
2017-12-20T07:02:14.590Z,22.58
2017-12-20T07:04:42.772Z,19.05
2017-12-20T07:07:10.333Z,20.90
2017-12-20T07:09:37.732Z,21.67
2017-12-20T07:12:05.940Z,20.70
2017-12-20T07:14:33.403Z,21.23
2017-12-20T07:17:00.823Z,19.67
2017-12-20T07:19:28.284Z,22.67
2017-12-20T07:21:55.705Z,21.33
2017-12-20T07:24:23.287Z,22.62
2017-12-20T07:26:51.454Z,19.85
2017-12-20T07:29:19.653Z,19.10
2017-12-20T07:31:47.092Z,21.02
2017-12-20T07:34:15.324Z,23.55
2017-12-20T07:36:42.756Z,24.42
2017-12-20T07:39:11.019Z,25.05
2017-12-20T07:41:38.416Z,19.98
2017-12-20T07:44:06.734Z,22.23
2017-12-20T07:46:34.093Z,22.92
2017-12-20T07:49:01.516Z,26.45
2017-12-20T07:51:29.038Z,23.52
2017-12-20T07:53:56.500Z,21.52
2017-12-20T07:56:24.717Z,23.08
2017-12-20T07:58:52.128Z,20.20
2017-12-20T08:01:20.333Z,26.15
2017-12-20T08:03:48.535Z,27.27
2017-12-20T08:06:16.005Z,21.87
2017-12-20T08:08:43.452Z,23.60
2017-12-20T08:11:11.644Z,24.33
2017-12-20T08:13:39.828Z,20.12
2017-12-20T08:16:08.064Z,23.52
2017-12-20T08:18:35.511Z,23.35
2017-12-20T08:21:02.980Z,22.62
2017-12-20T08:23:30.405Z,23.52
2017-12-20T08:25:57.856Z,25.58
2017-12-20T08:28:25.289Z,26.73
2017-12-20T08:30:52.716Z,25.62
2017-12-20T08:33:20.169Z,24.63
2017-12-20T08:35:47.586Z,26.02
2017-12-20T08:38:15.064Z,27.67
2017-12-20T08:40:42.492Z,23.08
2017-12-20T08:43:09.916Z,26.40
2017-12-20T08:45:37.412Z,26.12
2017-12-20T08:48:04.833Z,24.60
2017-12-20T08:50:32.307Z,26.87
2017-12-20T08:52:59.724Z,21.05
2017-12-20T08:55:27.176Z,22.13
2017-12-20T08:57:54.604Z,21.45
2017-12-20T09:00:22.153Z,26.52
2017-12-20T09:02:50.368Z,23.30
2017-12-20T09:05:17.787Z,23.80
2017-12-20T09:07:45.246Z,23.27
2017-12-20T09:10:12.680Z,23.67
2017-12-20T09:12:40.127Z,20.27
2017-12-20T09:15:08.316Z,20.70
2017-12-20T09:17:36.532Z,25.70
2017-12-20T09:20:03.972Z,21.45
2017-12-20T09:22:32.168Z,21.08
2017-12-20T09:24:59.648Z,18.90
2017-12-20T09:27:27.125Z,21.37
2017-12-20T09:29:54.564Z,19.23
2017-12-20T09:32:22.790Z,22.25
2017-12-20T09:34:50.208Z,19.83
2017-12-20T09:37:18.416Z,17.40
2017-12-20T09:39:46.641Z,17.25
2017-12-20T09:42:14.192Z,19.08
2017-12-20T09:44:41.616Z,16.45
2017-12-20T09:47:09.036Z,16.87
2017-12-20T09:49:36.464Z,14.80
2017-12-20T09:52:04.644Z,16.05
2017-12-20T09:54:32.067Z,15.65
2017-12-20T09:56:59.625Z,16.55
2017-12-20T09:59:27.813Z,15.88
2017-12-20T10:01:55.242Z,17.27
2017-12-20T10:04:22.786Z,17.50
2017-12-20T10:06:50.220Z,15.63
2017-12-20T10:09:17.683Z,15.35
2017-12-20T10:11:45.849Z,17.12
2017-12-20T10:14:14.062Z,12.52
2017-12-20T10:16:42.228Z,17.42
2017-12-20T10:19:10.465Z,17.60
2017-12-20T10:21:37.884Z,14.38
2017-12-20T10:24:06.195Z,17.55
2017-12-20T10:26:34.384Z,14.27
2017-12-20T10:29:01.799Z,19.00
2017-12-20T10:31:29.238Z,16.75
2017-12-20T10:33:56.661Z,17.40
2017-12-20T10:36:24.882Z,17.62
2017-12-20T10:38:52.352Z,17.30
2017-12-20T10:41:19.804Z,16.25
2017-12-20T10:43:47.224Z,16.35
2017-12-20T10:46:14.656Z,17.17
2017-12-20T10:48:42.071Z,14.32
2017-12-20T10:51:09.597Z,21.75
2017-12-20T10:53:37.092Z,14.90
2017-12-20T10:56:04.559Z,17.37
2017-12-20T10:58:32.032Z,14.07
2017-12-20T11:00:59.482Z,11.80
2017-12-20T11:03:26.895Z,13.27
2017-12-20T11:05:54.411Z,14.52
2017-12-20T11:08:21.844Z,14.30
2017-12-20T11:10:50.051Z,14.25
2017-12-20T11:13:18.260Z,13.57
2017-12-20T11:15:45.725Z,15.20
2017-12-20T11:18:13.156Z,13.13
2017-12-20T11:20:40.664Z,16.20
2017-12-20T11:23:08.089Z,12.93
2017-12-20T11:25:35.612Z,13.15
2017-12-20T11:28:03.072Z,14.00
2017-12-20T11:30:30.487Z,14.90
2017-12-20T11:32:58.016Z,15.10
2017-12-20T11:35:25.447Z,13.80
2017-12-20T11:37:53.648Z,15.13
2017-12-20T11:40:21.888Z,14.20
2017-12-20T11:42:50.353Z,17.25
2017-12-20T11:45:17.783Z,14.13
2017-12-20T11:47:45.288Z,16.80
2017-12-20T11:50:13.476Z,16.37
2017-12-20T11:52:40.896Z,19.87
2017-12-20T11:55:08.323Z,18.10
2017-12-20T11:57:35.781Z,16.45
2017-12-20T12:00:03.213Z,19.10
2017-12-20T12:02:30.632Z,17.23
2017-12-20T12:04:58.104Z,18.30
2017-12-20T12:07:25.508Z,19.83
2017-12-20T12:09:53.044Z,21.08
2017-12-20T12:12:20.469Z,17.70
2017-12-20T12:14:48.655Z,20.08
2017-12-20T12:17:16.888Z,19.55
2017-12-20T12:19:44.308Z,21.65
2017-12-20T12:22:12.524Z,18.17
2017-12-20T12:24:39.996Z,17.37
2017-12-20T12:27:07.408Z,18.83
2017-12-20T12:29:34.938Z,19.90
2017-12-20T12:32:03.133Z,18.73
2017-12-20T12:34:30.581Z,18.00
2017-12-20T12:36:58.033Z,17.12
2017-12-20T12:39:25.535Z,17.08
2017-12-20T12:41:53.012Z,18.02
2017-12-20T12:44:20.477Z,16.10
2017-12-20T12:46:47.955Z,17.10
2017-12-20T12:49:15.356Z,15.50
2017-12-20T12:51:42.796Z,17.58
2017-12-20T12:54:10.247Z,15.75
2017-12-20T12:56:37.676Z,16.50
2017-12-20T12:59:05.108Z,16.15
2017-12-20T13:01:32.536Z,14.45
2017-12-20T13:04:00.743Z,18.00
2017-12-20T13:06:28.930Z,15.02
2017-12-20T13:08:56.405Z,14.68
2017-12-20T13:11:23.876Z,15.73
2017-12-20T13:13:51.291Z,14.85
2017-12-20T13:16:18.724Z,16.05
2017-12-20T13:18:46.151Z,14.30
2017-12-20T13:21:14.372Z,16.40
2017-12-20T13:23:41.844Z,16.60
2017-12-20T13:26:09.270Z,14.02
2017-12-20T13:28:37.484Z,15.88
2017-12-20T13:31:05.680Z,14.65
2017-12-20T13:33:33.145Z,15.48
2017-12-20T13:36:01.350Z,15.40
2017-12-20T13:38:28.768Z,12.63
2017-12-20T13:40:56.215Z,13.98
2017-12-20T13:43:23.619Z,16.02
2017-12-20T13:45:51.812Z,17.42
2017-12-20T13:48:19.240Z,14.80
2017-12-20T13:50:46.764Z,16.80
2017-12-20T13:53:14.336Z,16.95
2017-12-20T13:55:42.525Z,17.77
2017-12-20T13:58:09.936Z,19.37
2017-12-20T14:00:37.370Z,17.77
2017-12-20T14:03:04.831Z,17.98
2017-12-20T14:05:32.267Z,17.98
2017-12-20T14:08:00.452Z,20.15
2017-12-20T14:10:28.651Z,17.85
2017-12-20T14:12:56.841Z,17.65
2017-12-20T14:15:25.048Z,16.37
2017-12-20T14:17:52.580Z,17.25
2017-12-20T14:20:20.775Z,14.43
2017-12-20T14:22:48.960Z,13.90
2017-12-20T14:25:17.176Z,12.20
2017-12-20T14:27:44.597Z,10.75
2017-12-20T14:30:12.833Z,10.90
2017-12-20T14:32:40.304Z,11.20
2017-12-20T14:35:08.476Z,10.88
2017-12-20T14:37:36.680Z,12.00
2017-12-20T14:40:04.104Z,11.90
2017-12-20T14:42:31.519Z,10.73
2017-12-20T14:44:58.987Z,13.80
2017-12-20T14:47:26.408Z,11.10
2017-12-20T14:49:53.926Z,11.63
2017-12-20T14:52:22.251Z,13.15
2017-12-20T14:54:49.684Z,12.88
2017-12-20T14:57:17.164Z,12.35
2017-12-20T14:59:44.584Z,11.35
2017-12-20T15:02:12.108Z,13.85
2017-12-20T15:04:39.533Z,14.87
2017-12-20T15:07:07.754Z,12.45
2017-12-20T15:09:35.213Z,15.93
2017-12-20T15:12:03.436Z,15.02
2017-12-20T15:14:30.900Z,16.05
2017-12-20T15:16:58.329Z,15.93
2017-12-20T15:19:26.534Z,17.15
2017-12-20T15:21:54.753Z,17.05
2017-12-20T15:24:22.364Z,19.75
2017-12-20T15:26:50.555Z,18.70
2017-12-20T15:29:18.032Z,20.37
2017-12-20T15:31:46.224Z,20.37
2017-12-20T15:34:14.440Z,18.62
2017-12-20T15:36:41.868Z,17.27
2017-12-20T15:39:10.080Z,19.48
2017-12-20T15:41:38.307Z,17.67
2017-12-20T15:44:05.779Z,19.33
2017-12-20T15:46:33.224Z,16.92
2017-12-20T15:49:00.697Z,15.75
2017-12-20T15:51:28.122Z,15.52
2017-12-20T15:53:55.544Z,14.45
2017-12-20T15:56:22.959Z,14.55
2017-12-20T15:58:51.168Z,14.55
2017-12-20T16:01:19.352Z,11.68
2017-12-20T16:03:47.559Z,13.52
2017-12-20T16:06:15.132Z,17.27
2017-12-20T16:08:43.307Z,15.43
2017-12-20T16:11:10.727Z,15.23
2017-12-20T16:13:38.275Z,16.05
2017-12-20T16:16:05.687Z,16.83
2017-12-20T16:18:33.208Z,17.92
2017-12-20T16:21:00.643Z,16.52
2017-12-20T16:23:28.369Z,15.23
2017-12-20T16:25:55.785Z,18.98
2017-12-20T16:28:23.990Z,19.50
2017-12-20T16:30:51.701Z,15.63
2017-12-20T16:33:19.099Z,18.55
2017-12-20T16:35:46.616Z,17.20
2017-12-20T16:38:14.085Z,16.25
2017-12-20T16:40:41.551Z,14.65
2017-12-20T16:43:09.740Z,19.10
2017-12-20T16:45:37.186Z,17.87
2017-12-20T16:48:05.377Z,18.80
2017-12-20T16:50:33.616Z,16.17
2017-12-20T16:53:01.094Z,16.92
2017-12-20T16:55:28.522Z,18.37
2017-12-20T16:57:55.997Z,18.08
2017-12-20T17:00:23.480Z,16.48
2017-12-20T17:02:50.917Z,19.25
2017-12-20T17:05:18.340Z,19.12
2017-12-20T17:07:45.768Z,14.80
2017-12-20T17:10:13.197Z,18.95
2017-12-20T17:12:40.619Z,18.40
2017-12-20T17:15:08.072Z,17.33
2017-12-20T17:17:35.504Z,16.80
2017-12-20T17:20:02.928Z,17.95
2017-12-20T17:22:30.433Z,21.00
2017-12-20T17:24:57.959Z,18.52
2017-12-20T17:27:26.318Z,21.10
2017-12-20T17:29:54.635Z,21.23
2017-12-20T17:32:22.873Z,17.98
2017-12-20T17:34:50.296Z,18.27
2017-12-20T17:37:17.711Z,20.25
2017-12-20T17:39:45.153Z,18.20
2017-12-20T17:42:12.596Z,21.45
2017-12-20T17:44:40.068Z,20.70
2017-12-20T17:47:07.503Z,22.23
2017-12-20T17:49:34.916Z,23.20
2017-12-20T17:52:02.398Z,24.30
2017-12-20T17:54:29.845Z,22.33
2017-12-20T17:56:57.344Z,20.70
2017-12-20T17:59:24.791Z,23.87
2017-12-20T18:01:52.395Z,21.10
2017-12-20T18:04:19.924Z,23.60
2017-12-20T18:06:47.353Z,22.98
2017-12-20T18:09:14.771Z,23.27
2017-12-20T18:11:42.204Z,20.30
2017-12-20T18:14:10.388Z,24.30
2017-12-20T18:16:38.604Z,25.90
2017-12-20T18:19:06.084Z,29.35
2017-12-20T18:21:33.525Z,26.08
2017-12-20T18:24:02.173Z,24.90
2017-12-20T18:26:29.644Z,22.90
2017-12-20T18:28:57.192Z,22.98
2017-12-20T18:31:24.612Z,21.60
2017-12-20T18:33:52.061Z,23.20
2017-12-20T18:36:19.469Z,23.05
2017-12-20T18:38:47.698Z,23.25
2017-12-20T18:41:15.155Z,23.95
2017-12-20T18:43:42.626Z,21.95
2017-12-20T18:46:10.044Z,23.98
2017-12-20T18:48:37.472Z,25.77
2017-12-20T18:51:04.917Z,26.25
2017-12-20T18:53:33.097Z,25.30
2017-12-20T18:56:01.308Z,27.60
2017-12-20T18:58:28.734Z,25.48
2017-12-20T19:00:56.157Z,26.62
2017-12-20T19:03:23.720Z,24.23
2017-12-20T19:05:51.118Z,28.35
2017-12-20T19:08:18.556Z,25.42
2017-12-20T19:10:46.020Z,27.70
2017-12-20T19:13:13.490Z,27.95
2017-12-20T19:15:40.911Z,22.92
2017-12-20T19:18:08.425Z,23.80
2017-12-20T19:20:35.999Z,21.45
2017-12-20T19:23:04.164Z,24.90
2017-12-20T19:25:32.376Z,23.23
2017-12-20T19:27:59.791Z,23.80
2017-12-20T19:30:27.308Z,29.15
2017-12-20T19:32:54.793Z,28.65
2017-12-20T19:35:22.248Z,26.08
2017-12-20T19:37:49.763Z,29.15
2017-12-20T19:40:17.188Z,30.92
2017-12-20T19:42:45.528Z,28.23
2017-12-20T19:45:13.154Z,24.67
2017-12-20T19:47:41.344Z,26.52
2017-12-20T19:50:08.812Z,27.05
2017-12-20T19:52:36.240Z,29.05
2017-12-20T19:55:03.750Z,32.47
2017-12-20T19:57:31.336Z,35.05
2017-12-20T19:59:58.740Z,30.95
2017-12-20T20:02:26.218Z,31.87
2017-12-20T20:04:53.635Z,31.05
2017-12-20T20:07:21.055Z,30.23
2017-12-20T20:09:48.501Z,31.77
2017-12-20T20:12:15.960Z,33.92
2017-12-20T20:14:43.381Z,32.53
2017-12-20T20:17:11.568Z,34.88
2017-12-20T20:19:39.756Z,36.83
2017-12-20T20:22:08.069Z,29.65
2017-12-20T20:24:36.236Z,30.77
2017-12-20T20:27:04.424Z,30.55
2017-12-20T20:29:32.735Z,36.38
2017-12-20T20:32:00.917Z,31.65
2017-12-20T20:34:28.348Z,32.40
2017-12-20T20:36:55.768Z,35.08
2017-12-20T20:39:23.225Z,31.58
2017-12-20T20:41:50.692Z,37.42
2017-12-20T20:44:18.167Z,33.00
2017-12-20T20:46:45.697Z,29.35
2017-12-20T20:49:13.116Z,32.47
2017-12-20T20:51:40.571Z,34.80
2017-12-20T20:54:07.996Z,33.20
2017-12-20T20:56:35.439Z,33.42
2017-12-20T20:59:02.865Z,32.25
2017-12-20T21:01:31.108Z,31.25
2017-12-20T21:03:58.571Z,29.20
2017-12-20T21:06:26.006Z,30.02
2017-12-20T21:08:53.419Z,29.92
2017-12-20T21:11:20.852Z,28.40
2017-12-20T21:13:48.272Z,29.52
2017-12-20T21:16:15.696Z,29.55
2017-12-20T21:18:43.204Z,25.98
2017-12-20T21:21:10.659Z,27.65
2017-12-20T21:23:38.076Z,27.13
2017-12-20T21:26:06.280Z,32.13
2017-12-20T21:28:33.704Z,25.98
2017-12-20T21:31:01.128Z,29.48
2017-12-20T21:33:28.544Z,28.92
2017-12-20T21:35:56.009Z,29.27
2017-12-20T21:38:23.434Z,26.87
2017-12-20T21:40:50.860Z,29.55
2017-12-20T21:43:19.061Z,27.83
2017-12-20T21:45:47.263Z,26.77
2017-12-20T21:48:15.435Z,25.80
2017-12-20T21:50:43.015Z,28.08
2017-12-20T21:53:10.449Z,35.78
2017-12-20T21:55:37.874Z,26.05
2017-12-20T21:58:05.336Z,26.00
2017-12-20T22:00:32.748Z,27.85
2017-12-20T22:03:00.172Z,29.30
2017-12-20T22:05:27.640Z,29.75
2017-12-20T22:07:55.124Z,30.40
2017-12-20T22:10:22.552Z,24.27
2017-12-20T22:12:50.752Z,29.75
2017-12-20T22:15:18.168Z,31.02
2017-12-20T22:17:45.598Z,24.00
2017-12-20T22:20:13.094Z,28.77
2017-12-20T22:22:40.515Z,28.92
2017-12-20T22:25:08.704Z,27.58
2017-12-20T22:27:36.908Z,29.33
2017-12-20T22:30:04.384Z,30.90
2017-12-20T22:32:31.805Z,29.60
2017-12-20T22:34:59.237Z,32.40
2017-12-20T22:37:26.690Z,31.70
2017-12-20T22:39:54.125Z,31.73
2017-12-20T22:42:21.540Z,27.58
2017-12-20T22:44:48.971Z,31.00
2017-12-20T22:47:17.181Z,31.05
2017-12-20T22:49:44.616Z,31.77
2017-12-20T22:52:12.032Z,26.67
2017-12-20T22:54:39.468Z,28.12
2017-12-20T22:57:07.680Z,30.12
2017-12-20T22:59:35.108Z,29.42
2017-12-20T23:02:02.621Z,35.88
2017-12-20T23:04:30.807Z,29.27
2017-12-20T23:06:58.272Z,28.85
2017-12-20T23:09:25.695Z,29.48
2017-12-20T23:11:53.127Z,30.15
2017-12-20T23:14:20.584Z,27.40
2017-12-20T23:16:48.047Z,27.40
2017-12-20T23:19:15.492Z,28.08
2017-12-20T23:21:43.680Z,29.92
2017-12-20T23:24:11.872Z,28.33
2017-12-20T23:26:40.106Z,33.53
2017-12-20T23:29:07.552Z,25.98
2017-12-20T23:31:34.984Z,29.75
2017-12-20T23:34:03.203Z,30.15
2017-12-20T23:36:30.632Z,31.25
2017-12-20T23:38:58.147Z,26.95
2017-12-20T23:41:26.335Z,28.77
2017-12-20T23:43:53.756Z,29.42
2017-12-20T23:46:21.296Z,27.42
2017-12-20T23:48:49.539Z,25.77
2017-12-20T23:51:17.736Z,26.55
2017-12-20T23:53:45.162Z,29.25
2017-12-20T23:56:12.688Z,23.87
2017-12-20T23:58:40.120Z,26.10
